Time;durP1;ratioP1;P1;durP2;ratioP2;P2;SDS_P1;SDS_P2;PMS_P1;PMS_P2;Temp;Humidity;BMP_temperature;BMP_pressure;BME280_temperature;BME280_humidity;BME280_pressure;Samples;Min_cycle;Max_cycle;Signal;HPM_P1;HPM_P2
2023/05/22 00:02:16;;;;;;;;;;;;;;;18.38;51.14;101925.22;7353156;19;19942;-58
2023/05/22 00:04:41;;;;;;;;;;;;;;;18.36;51.29;101930.59;7350739;19;19978;-58
2023/05/22 00:07:06;;;;;;;;;;;;;;;18.35;51.64;101920.94;7353180;19;19928;-58
2023/05/22 00:09:31;;;;;;;;;;;;;;;18.33;51.29;101922.75;7352059;19;19915;-59
2023/05/22 00:11:57;;;;;;;;;;;;;;;18.32;51.52;101914.88;7352908;19;19919;-59
2023/05/22 00:14:22;;;;;;;;;;;;;;;18.30;51.83;101922.88;7351437;19;20339;-58
2023/05/22 00:16:47;;;;;;;;;;;;;;;18.29;51.61;101931.69;7353713;19;19993;-58
2023/05/22 00:19:15;;;;;;;;;;;;;;;18.27;51.56;101930.91;7350097;19;19947;-56
2023/05/22 00:21:44;;;;;;;;;;;;;;;18.27;51.83;101930.91;7353864;19;19930;-58
2023/05/22 00:24:09;;;;;;;;;;;;;;;18.25;51.56;101927.47;7352005;19;19930;-59
2023/05/22 00:26:34;;;;;;;;;;;;;;;18.24;51.99;101925.72;7351565;19;19930;-58
2023/05/22 00:29:00;;;;;;;;;;;;;;;18.24;51.72;101930.13;7351313;19;19990;-58
2023/05/22 00:31:25;;;;;;;;;;;;;;;18.22;51.77;101927.56;7353965;19;20549;-58
2023/05/22 00:33:50;;;;;;;;;;;;;;;18.21;51.57;101924.97;7356485;19;20363;-58
2023/05/22 00:36:17;;;;;;;;;;;;;;;18.20;51.69;101923.22;7355380;19;19944;-58
2023/05/22 00:38:42;;;;;;;;;;;;;;;18.20;52.05;101925.88;7359281;19;20275;-58
2023/05/22 00:41:07;;;;;;;;;;;;;;;18.19;51.62;101932.94;7354874;19;19918;-58
2023/05/22 00:43:33;;;;;;;;;;;;;;;18.18;51.75;101931.22;7359697;19;20449;-58
2023/05/22 00:45:58;;;;;;;;;;;;;;;18.16;51.67;101922.50;7357674;19;19933;-58
2023/05/22 00:48:23;;;;;;;;;;;;;;;18.14;51.72;101919.88;7356684;19;19937;-58
2023/05/22 00:50:49;;;;;;;;;;;;;;;18.14;51.78;101919.03;7360037;19;20775;-58
2023/05/22 00:53:15;;;;;;;;;;;;;;;18.13;51.82;101922.59;7356457;19;19937;-58
2023/05/22 00:55:41;;;;;;;;;;;;;;;18.12;51.64;101915.56;7357770;19;20452;-58
2023/05/22 00:58:08;;;;;;;;;;;;;;;18.10;52.11;101918.28;7357449;19;20290;-58
2023/05/22 01:00:38;;;;;;;;;;;;;;;18.10;51.96;101922.72;7361227;19;20496;-59
2023/05/22 01:03:04;;;;;;;;;;;;;;;18.07;51.97;101915.72;7357077;19;20459;-58
2023/05/22 01:05:29;;;;;;;;;;;;;;;18.07;52.05;101922.81;7360476;19;20002;-58
2023/05/22 01:07:55;;;;;;;;;;;;;;;18.05;51.57;101924.66;7356700;19;19919;-58
2023/05/22 01:10:21;;;;;;;;;;;;;;;18.02;51.66;101930.88;7358899;19;20459;-58
2023/05/22 01:12:54;;;;;;;;;;;;;;;18.00;51.80;101923.94;7355790;19;19918;-58
2023/05/22 01:15:19;;;;;;;;;;;;;;;17.95;51.65;101920.59;7359482;19;19910;-58
2023/05/22 01:17:51;;;;;;;;;;;;;;;17.92;51.92;101920.69;7354267;19;19937;-59
2023/05/22 01:20:26;;;;;;;;;;;;;;;17.88;52.09;101928.69;7358397;19;19919;-58
2023/05/22 01:23:09;;;;;;;;;;;;;;;17.84;52.24;101919.19;7356345;19;19944;-58
2023/05/22 01:25:34;;;;;;;;;;;;;;;17.80;52.05;101920.19;7359469;19;19918;-58
2023/05/22 01:28:10;;;;;;;;;;;;;;;17.79;51.81;101923.75;7354750;19;19921;-59
2023/05/22 01:30:42;;;;;;;;;;;;;;;17.77;52.41;101924.69;7358435;19;19911;-58
2023/05/22 01:33:08;;;;;;;;;;;;;;;17.75;51.93;101927.41;7358926;19;20886;-58
2023/05/22 01:35:35;;;;;;;;;;;;;;;17.31;52.11;101866.28;7356103;19;20694;-59
2023/05/22 01:38:01;;;;;;;;;;;;;;;17.71;52.01;101944.22;7357131;19;19956;-58
2023/05/22 01:40:27;;;;;;;;;;;;;;;17.71;52.38;101951.28;7358073;19;20872;-56
2023/05/22 01:42:52;;;;;;;;;;;;;;;17.68;52.35;101936.38;7353546;19;19922;-59
2023/05/22 01:45:19;;;;;;;;;;;;;;;17.67;52.47;101939.97;7357626;19;19958;-58
2023/05/22 01:47:45;;;;;;;;;;;;;;;17.65;51.98;101936.50;7358136;19;19990;-58
2023/05/22 01:50:10;;;;;;;;;;;;;;;17.64;51.95;101934.78;7355252;19;20868;-58
2023/05/22 01:52:38;;;;;;;;;;;;;;;17.63;51.93;101933.03;7357610;19;19933;-58
2023/05/22 01:55:06;;;;;;;;;;;;;;;17.61;52.28;101935.75;7355364;19;19935;-58
2023/05/22 01:57:42;;;;;;;;;;;;;;;17.60;52.32;101938.44;7355322;19;19970;-58
2023/05/22 02:00:09;;;;;;;;;;;;;;;17.58;52.32;101934.97;7353857;19;19931;-58
2023/05/22 02:02:36;;;;;;;;;;;;;;;17.57;52.05;101938.53;7354181;19;19947;-58
2023/05/22 02:05:03;;;;;;;;;;;;;;;17.57;52.21;101938.53;7358814;19;19923;-58
2023/05/22 02:07:29;;;;;;;;;;;;;;;17.54;52.16;101941.28;7357010;19;20001;-58
2023/05/22 02:09:55;;;;;;;;;;;;;;;17.51;51.65;101944.00;7355919;19;19923;-58
2023/05/22 02:12:21;;;;;;;;;;;;;;;17.35;51.99;101918.09;7357806;19;20655;-58
2023/05/22 02:14:46;;;;;;;;;;;;;;;17.46;51.91;101945.94;7354598;19;20406;-58
2023/05/22 02:17:12;;;;;;;;;;;;;;;17.43;51.67;101946.00;7356942;19;19923;-58
2023/05/22 02:19:37;;;;;;;;;;;;;;;17.39;51.83;101950.56;7357233;19;19918;-58
2023/05/22 02:22:02;;;;;;;;;;;;;;;17.35;51.58;101949.78;7355758;19;19922;-59
2023/05/22 02:24:31;;;;;;;;;;;;;;;17.32;51.86;101944.56;7356647;19;19919;-58
2023/05/22 02:26:57;;;;;;;;;;;;;;;17.30;51.46;101954.34;7355879;19;19931;-57
2023/05/22 02:29:22;;;;;;;;;;;;;;;17.27;51.82;101956.19;7357697;19;19951;-58
2023/05/22 02:31:47;;;;;;;;;;;;;;;17.22;51.41;101951.03;7353726;19;19952;-54
2023/05/22 02:34:13;;;;;;;;;;;;;;;17.19;51.66;101953.81;7357053;19;19914;-58
2023/05/22 02:36:39;;;;;;;;;;;;;;;17.17;51.61;101950.31;7357367;19;21181;-58
2023/05/22 02:39:04;;;;;;;;;;;;;;;17.13;51.57;101956.59;7357140;19;20206;-58
2023/05/22 02:41:29;;;;;;;;;;;;;;;17.08;51.77;101946.22;7357449;19;20230;-58
2023/05/22 02:43:55;;;;;;;;;;;;;;;17.06;51.79;101962.97;7355242;19;19927;-58
2023/05/22 02:46:20;;;;;;;;;;;;;;;17.03;51.78;101957.78;7356898;19;19946;-58
2023/05/22 02:48:45;;;;;;;;;;;;;;;16.99;51.52;101956.16;7355139;19;19922;-58
2023/05/22 02:51:10;;;;;;;;;;;;;;;16.96;51.83;101958.88;7357272;19;19919;-58
2023/05/22 02:53:38;;;;;;;;;;;;;;;16.93;51.65;101964.25;7350866;19;19910;-58
2023/05/22 02:56:06;;;;;;;;;;;;;;;16.89;51.35;101960.84;7355315;19;19910;-59
2023/05/22 02:58:31;;;;;;;;;;;;;;;16.86;51.61;101967.06;7354690;19;20770;-59
2023/05/22 03:00:57;;;;;;;;;;;;;;;16.82;51.49;101965.41;7354524;19;19959;-59
2023/05/22 03:03:24;;;;;;;;;;;;;;;16.78;51.57;101969.06;7339198;19;19938;-58
2023/05/22 03:05:52;;;;;;;;;;;;;;;16.74;51.57;101966.56;7357412;19;19922;-58
2023/05/22 03:08:17;;;;;;;;;;;;;;;16.72;51.21;101969.22;7358740;19;20628;-58
2023/05/22 03:10:43;;;;;;;;;;;;;;;16.67;51.42;101967.59;7357537;19;19927;-58
2023/05/22 03:13:08;;;;;;;;;;;;;;;16.64;51.69;101965.91;7358131;19;19922;-58
2023/05/22 03:15:33;;;;;;;;;;;;;;;16.60;51.22;101969.53;7354940;19;19918;-58
2023/05/22 03:17:58;;;;;;;;;;;;;;;16.57;51.55;101959.97;7356862;19;20068;-58
2023/05/22 03:20:24;;;;;;;;;;;;;;;16.54;51.17;101969.72;7357537;19;19931;-58
2023/05/22 03:22:49;;;;;;;;;;;;;;;16.50;51.44;101978.59;7353682;19;19929;-58
2023/05/22 03:25:14;;;;;;;;;;;;;;;16.47;51.16;101978.69;7357605;19;20796;-58
2023/05/22 03:27:40;;;;;;;;;;;;;;;16.44;51.59;101986.69;7357301;19;21728;-55
2023/05/22 03:30:05;;;;;;;;;;;;;;;16.41;51.59;101984.13;7341839;19;19915;-59
2023/05/22 03:32:31;;;;;;;;;;;;;;;16.37;51.30;101977.19;7356552;19;19942;-58
2023/05/22 03:34:57;;;;;;;;;;;;;;;16.33;51.68;101992.25;7356828;19;19947;-58
2023/05/22 03:37:22;;;;;;;;;;;;;;;16.30;51.52;101987.91;7358802;19;19939;-58
2023/05/22 03:39:48;;;;;;;;;;;;;;;16.28;51.64;101983.59;7358306;19;19934;-58
2023/05/22 03:42:13;;;;;;;;;;;;;;;16.25;51.21;101986.28;7356847;19;19923;-58
2023/05/22 03:44:38;;;;;;;;;;;;;;;16.23;51.54;101978.44;7356627;19;19923;-58
2023/05/22 03:47:04;;;;;;;;;;;;;;;16.19;51.17;101979.41;7354774;19;19998;-58
2023/05/22 03:49:29;;;;;;;;;;;;;;;16.15;51.09;101977.75;7356790;19;19930;-58
2023/05/22 03:51:54;;;;;;;;;;;;;;;16.12;51.65;101983.13;7359698;19;19960;-58
2023/05/22 03:54:20;;;;;;;;;;;;;;;16.09;51.54;101991.09;7357268;19;19978;-58
2023/05/22 03:56:45;;;;;;;;;;;;;;;16.07;51.32;101990.28;7357024;19;19925;-58
2023/05/22 03:59:10;;;;;;;;;;;;;;;16.04;51.28;101990.34;7357823;19;19929;-57
2023/05/22 04:01:38;;;;;;;;;;;;;;;16.02;51.45;101992.16;7357464;19;20268;-58
2023/05/22 04:04:04;;;;;;;;;;;;;;;16.01;51.46;101998.31;7357073;19;20002;-59
2023/05/22 04:06:33;;;;;;;;;;;;;;;15.99;51.66;102002.75;7354787;19;19955;-52
2023/05/22 04:08:59;;;;;;;;;;;;;;;15.98;51.39;102011.56;7357663;19;19926;-58
2023/05/22 04:11:24;;;;;;;;;;;;;;;15.96;51.23;102002.81;7356524;19;19934;-57
2023/05/22 04:13:49;;;;;;;;;;;;;;;15.94;51.12;102004.66;7358898;19;20306;-58
2023/05/22 04:16:16;;;;;;;;;;;;;;;15.91;51.41;102002.06;7356400;19;19938;-58
2023/05/22 04:18:41;;;;;;;;;;;;;;;15.89;51.55;102007.38;7355273;19;19922;-58
2023/05/22 04:21:08;;;;;;;;;;;;;;;15.87;51.47;102009.19;7355775;19;20629;-58
2023/05/22 04:23:33;;;;;;;;;;;;;;;15.83;51.54;101997.88;7356868;19;19923;-59
2023/05/22 04:26:01;;;;;;;;;;;;;;;15.82;51.32;102006.69;7354939;19;20334;-58
2023/05/22 04:28:27;;;;;;;;;;;;;;;15.78;51.52;101999.75;7356695;19;19934;-58
2023/05/22 04:30:53;;;;;;;;;;;;;;;15.76;51.63;102011.19;7355892;19;19990;-58
2023/05/22 04:33:18;;;;;;;;;;;;;;;15.74;51.42;102008.63;7358777;19;20319;-58
2023/05/22 04:35:43;;;;;;;;;;;;;;;15.70;51.64;102012.22;7356511;19;19974;-58
2023/05/22 04:38:09;;;;;;;;;;;;;;;15.70;51.75;102014.84;7355885;19;19915;-60
2023/05/22 04:40:36;;;;;;;;;;;;;;;15.68;51.41;102010.53;7355385;19;19922;-60
2023/05/22 04:43:02;;;;;;;;;;;;;;;15.66;51.74;102013.22;7357522;19;19922;-60
2023/05/22 04:45:27;;;;;;;;;;;;;;;15.65;51.87;102015.84;7357304;19;20294;-60
2023/05/22 04:47:53;;;;;;;;;;;;;;;15.64;51.73;102017.63;7353201;19;21173;-58
2023/05/22 04:50:19;;;;;;;;;;;;;;;15.63;51.42;102018.53;7356944;19;19967;-58
2023/05/22 04:52:44;;;;;;;;;;;;;;;15.62;51.95;102029.94;7355641;19;20365;-58
2023/05/22 04:55:10;;;;;;;;;;;;;;;15.61;51.93;102022.91;7354271;19;20423;-58
2023/05/22 04:57:36;;;;;;;;;;;;;;;15.60;51.52;102031.72;7356385;19;19921;-58
2023/05/22 05:00:03;;;;;;;;;;;;;;;15.57;51.68;102027.41;7356663;19;19922;-58
2023/05/22 05:02:28;;;;;;;;;;;;;;;15.56;51.66;102032.69;7354000;19;20018;-58
2023/05/22 05:04:54;;;;;;;;;;;;;;;15.56;52.07;102035.31;7356436;19;20442;-58
2023/05/22 05:07:20;;;;;;;;;;;;;;;15.54;51.66;102038.00;7355385;19;20531;-58
2023/05/22 05:09:45;;;;;;;;;;;;;;;15.54;52.04;102042.41;7355790;19;19953;-58
2023/05/22 05:12:10;;;;;;;;;;;;;;;15.51;51.55;102038.06;7355769;19;19918;-60
2023/05/22 05:14:36;;;;;;;;;;;;;;;15.49;51.70;102045.13;7355906;19;19960;-60
2023/05/22 05:17:01;;;;;;;;;;;;;;;15.20;51.78;102014.16;7354553;19;19922;-60
2023/05/22 05:19:26;;;;;;;;;;;;;;;15.49;51.97;102057.44;7358283;19;19914;-60
2023/05/22 05:21:51;;;;;;;;;;;;;;;15.49;51.79;102062.69;7360995;19;19929;-60
2023/05/22 05:24:17;;;;;;;;;;;;;;;15.49;51.87;102071.44;7360692;19;19926;-60
2023/05/22 05:26:42;;;;;;;;;;;;;;;15.20;52.28;102016.78;7362030;19;19950;-58
2023/05/22 05:29:07;;;;;;;;;;;;;;;15.50;51.93;102064.41;7357695;19;19927;-58
2023/05/22 05:31:33;;;;;;;;;;;;;;;15.51;51.89;102068.78;7364103;19;19999;-60
2023/05/22 05:33:58;;;;;;;;;;;;;;;15.50;52.05;102061.78;7360170;19;19927;-61
2023/05/22 05:36:24;;;;;;;;;;;;;;;15.51;52.22;102063.50;7359787;19;20444;-60
2023/05/22 05:38:49;;;;;;;;;;;;;;;15.51;52.07;102063.50;7362106;19;19923;-60
2023/05/22 05:41:14;;;;;;;;;;;;;;;15.51;52.15;102063.50;7363212;19;19936;-60
2023/05/22 05:43:39;;;;;;;;;;;;;;;15.50;52.19;102067.03;7363238;19;19918;-60
2023/05/22 05:46:05;;;;;;;;;;;;;;;15.51;52.17;102068.78;7357652;19;19931;-60
2023/05/22 05:48:30;;;;;;;;;;;;;;;15.51;51.94;102074.94;7360337;19;19931;-58
2023/05/22 05:50:55;;;;;;;;;;;;;;;15.50;51.83;102072.31;7359228;19;19922;-59
2023/05/22 05:53:21;;;;;;;;;;;;;;;15.49;51.70;102070.59;7358565;19;19930;-58
2023/05/22 05:55:46;;;;;;;;;;;;;;;15.49;52.04;102066.19;7358114;19;19951;-58
2023/05/22 05:58:12;;;;;;;;;;;;;;;15.49;52.11;102067.97;7348779;19;19942;-58
2023/05/22 06:00:37;;;;;;;;;;;;;;;15.51;52.29;102074.03;7357548;19;19922;-60
2023/05/22 06:03:03;;;;;;;;;;;;;;;15.51;51.85;102074.94;7357958;19;19918;-60
2023/05/22 06:05:28;;;;;;;;;;;;;;;15.53;51.88;102077.53;7354479;19;19947;-60
2023/05/22 06:07:53;;;;;;;;;;;;;;;15.55;52.27;102075.72;7354064;19;19932;-60
2023/05/22 06:10:18;;;;;;;;;;;;;;;15.57;52.00;102081.84;7358389;19;19926;-59
2023/05/22 06:12:43;;;;;;;;;;;;;;;15.59;52.31;102080.03;7355394;19;20279;-60
2023/05/22 06:15:11;;;;;;;;;;;;;;;15.63;52.42;102091.38;7357993;19;19935;-60
2023/05/22 06:17:37;;;;;;;;;;;;;;;15.65;51.96;102093.09;7356928;19;19919;-60
2023/05/22 06:20:05;;;;;;;;;;;;;;;15.66;52.36;102089.56;7357381;19;20030;-58
2023/05/22 06:22:30;;;;;;;;;;;;;;;15.70;52.03;102095.63;7359380;19;20020;-59
2023/05/22 06:24:56;;;;;;;;;;;;;;;15.72;51.88;102094.69;7357591;19;20748;-59
2023/05/22 06:27:22;;;;;;;;;;;;;;;15.75;51.80;102093.75;7355577;19;19915;-59
2023/05/22 06:29:47;;;;;;;;;;;;;;;15.77;51.80;102086.72;7354688;19;19919;-58
2023/05/22 06:32:13;;;;;;;;;;;;;;;15.79;51.79;102090.16;7355540;19;20251;-59
2023/05/22 06:34:39;;;;;;;;;;;;;;;15.80;51.96;102087.47;7357219;19;19990;-59
2023/05/22 06:37:04;;;;;;;;;;;;;;;15.84;51.82;102093.56;7351659;19;20638;-59
2023/05/22 06:39:29;;;;;;;;;;;;;;;15.86;51.66;102090.88;7354237;19;19922;-58
2023/05/22 06:41:55;;;;;;;;;;;;;;;15.89;51.68;102101.34;7353658;19;19935;-58
2023/05/22 06:44:20;;;;;;;;;;;;;;;15.92;51.96;102106.56;7351211;19;20441;-58
2023/05/22 06:46:45;;;;;;;;;;;;;;;15.93;51.82;102106.53;7348314;19;19953;-56
2023/05/22 06:49:10;;;;;;;;;;;;;;;15.96;51.97;102100.31;7349770;19;19915;-58
2023/05/22 06:51:36;;;;;;;;;;;;;;;15.98;51.53;102101.16;7354655;19;20721;-59
2023/05/22 06:54:03;;;;;;;;;;;;;;;15.99;51.96;102109.00;7356012;19;20752;-58
2023/05/22 06:56:28;;;;;;;;;;;;;;;16.04;51.93;102111.56;7354019;19;19918;-58
2023/05/22 06:58:53;;;;;;;;;;;;;;;16.06;51.71;102104.47;7354086;19;19933;-57
2023/05/22 07:01:18;;;;;;;;;;;;;;;16.09;51.45;102101.78;7352885;19;20002;-59
2023/05/22 07:03:44;;;;;;;;;;;;;;;16.12;51.28;102103.44;7353338;19;19934;-58
2023/05/22 07:06:09;;;;;;;;;;;;;;;16.12;51.60;102114.88;7345224;19;20021;-58
2023/05/22 07:08:34;;;;;;;;;;;;;;;16.11;51.07;102118.41;7353892;19;19918;-58
2023/05/22 07:11:00;;;;;;;;;;;;;;;16.11;51.33;102123.66;7355232;19;19926;-58
2023/05/22 07:13:26;;;;;;;;;;;;;;;16.10;51.10;102121.94;7349188;19;19926;-58
2023/05/22 07:15:51;;;;;;;;;;;;;;;16.11;51.44;102122.81;7356492;19;19918;-58
2023/05/22 07:18:16;;;;;;;;;;;;;;;16.10;51.38;102121.94;7338532;19;19918;-58
2023/05/22 07:20:41;;;;;;;;;;;;;;;16.10;51.07;102132.47;7327780;19;19959;-59
2023/05/22 07:23:08;;;;;;;;;;;;;;;16.10;51.16;102129.84;7343368;19;20438;-58
2023/05/22 07:25:33;;;;;;;;;;;;;;;16.08;51.06;102136.94;7336515;19;19939;-58
2023/05/22 07:28:00;;;;;;;;;;;;;;;16.07;51.06;102138.72;7344786;19;19925;-58
2023/05/22 07:30:26;;;;;;;;;;;;;;;15.79;51.05;102085.75;7343674;19;19943;-58
2023/05/22 07:32:51;;;;;;;;;;;;;;;16.10;51.36;102135.13;7342688;19;19930;-58
2023/05/22 07:35:16;;;;;;;;;;;;;;;16.12;51.24;102138.59;7340780;19;19930;-57
2023/05/22 07:37:41;;;;;;;;;;;;;;;15.75;51.13;102076.19;7345954;19;19929;-58
2023/05/22 07:40:08;;;;;;;;;;;;;;;16.15;51.01;102130.59;7345209;19;19934;-58
2023/05/22 07:42:34;;;;;;;;;;;;;;;16.16;51.17;102134.09;7344616;19;19929;-59
2023/05/22 07:45:00;;;;;;;;;;;;;;;16.18;51.02;102141.09;7347317;19;19927;-58
2023/05/22 07:47:25;;;;;;;;;;;;;;;16.19;51.09;102136.69;7342175;19;19926;-58
2023/05/22 07:49:50;;;;;;;;;;;;;;;15.91;50.94;102089.00;7344537;19;19926;-58
2023/05/22 07:52:16;;;;;;;;;;;;;;;16.21;51.22;102145.41;7344619;19;19923;-59
2023/05/22 07:54:41;;;;;;;;;;;;;;;16.23;51.34;102149.75;7330558;19;19919;-58
2023/05/22 07:57:06;;;;;;;;;;;;;;;16.26;51.24;102154.94;7339114;19;19927;-58
2023/05/22 07:59:32;;;;;;;;;;;;;;;16.29;50.99;102160.16;7338699;19;19999;-58
2023/05/22 08:01:57;;;;;;;;;;;;;;;16.33;51.39;102171.50;7337331;19;20552;-59
2023/05/22 08:04:23;;;;;;;;;;;;;;;16.39;51.32;102170.50;7342054;19;19943;-58
2023/05/22 08:06:48;;;;;;;;;;;;;;;16.43;50.90;102172.16;7342611;19;19930;-58
2023/05/22 08:09:13;;;;;;;;;;;;;;;16.45;51.03;102165.94;7341156;19;19918;-58
2023/05/22 08:11:40;;;;;;;;;;;;;;;16.48;51.12;102165.00;7342801;19;19942;-58
2023/05/22 08:14:06;;;;;;;;;;;;;;;16.51;51.17;102159.66;7344815;19;20022;-58
2023/05/22 08:16:31;;;;;;;;;;;;;;;16.55;50.89;102169.22;7342169;19;19924;-58
2023/05/22 08:18:56;;;;;;;;;;;;;;;16.58;51.16;102166.53;7346319;19;20145;-58
2023/05/22 08:21:22;;;;;;;;;;;;;;;16.61;51.12;102175.19;7342319;19;20027;-58
2023/05/22 08:23:47;;;;;;;;;;;;;;;16.62;50.79;102170.78;7331861;19;20369;-58
2023/05/22 08:26:13;;;;;;;;;;;;;;;16.64;50.65;102176.06;7330136;19;19951;-58
2023/05/22 08:28:42;;;;;;;;;;;;;;;16.66;51.00;102169.81;7322776;19;20865;-58
2023/05/22 08:31:08;;;;;;;;;;;;;;;16.69;51.00;102175.03;7320886;19;19938;-58
2023/05/22 08:33:33;;;;;;;;;;;;;;;16.73;50.98;102179.38;7323470;19;19923;-58
2023/05/22 08:35:58;;;;;;;;;;;;;;;16.76;50.85;102181.03;7321593;19;19942;-58
2023/05/22 08:38:23;;;;;;;;;;;;;;;16.80;50.65;102178.28;7322964;19;19922;-58
2023/05/22 08:40:49;;;;;;;;;;;;;;;16.85;50.89;102176.41;7323926;19;19914;-59
2023/05/22 08:43:14;;;;;;;;;;;;;;;16.89;50.65;102177.22;7337512;19;19914;-59
2023/05/22 08:45:41;;;;;;;;;;;;;;;16.95;50.88;102178.81;7339700;19;19959;-58
2023/05/22 08:48:08;;;;;;;;;;;;;;;17.01;50.97;102170.75;7337760;19;19915;-58
2023/05/22 08:50:38;;;;;;;;;;;;;;;17.06;50.78;102171.47;7336646;19;19938;-58
2023/05/22 08:53:06;;;;;;;;;;;;;;;17.10;50.36;102175.78;7337840;19;20399;-57
2023/05/22 08:55:32;;;;;;;;;;;;;;;17.13;50.62;102175.69;7342252;19;19926;-58
2023/05/22 08:57:58;;;;;;;;;;;;;;;17.18;50.79;102179.06;7344493;19;19946;-58
2023/05/22 09:00:23;;;;;;;;;;;;;;;16.96;50.19;102130.41;7348197;19;19926;-57
2023/05/22 09:02:49;;;;;;;;;;;;;;;17.25;50.25;102170.09;7339983;19;19926;-57
2023/05/22 09:05:15;;;;;;;;;;;;;;;17.31;50.73;102172.56;7343196;19;19979;-57
2023/05/22 09:07:41;;;;;;;;;;;;;;;17.39;50.47;102182.94;7344443;19;19927;-57
2023/05/22 09:10:06;;;;;;;;;;;;;;;17.49;50.86;102175.63;7344793;19;19939;-57
2023/05/22 09:12:32;;;;;;;;;;;;;;;17.58;50.41;102175.34;7345219;19;19926;-58
2023/05/22 09:15:06;;;;;;;;;;;;;;;17.57;50.94;102150.69;7340782;19;19944;-58
2023/05/22 09:17:31;;;;;;;;;;;;;;;17.84;50.41;102171.97;7344443;19;19911;-58
2023/05/22 09:19:58;;;;;;;;;;;;;;;18.04;51.05;102166.09;7343647;19;19947;-58
2023/05/22 09:22:33;;;;;;;;;;;;;;;18.26;50.64;102161.88;7343346;19;19915;-58
2023/05/22 09:24:58;;;;;;;;;;;;;;;18.47;51.03;102172.69;7342943;19;20065;-58
2023/05/22 09:27:24;;;;;;;;;;;;;;;18.63;50.53;102173.91;7341667;19;19919;-58
2023/05/22 09:29:50;;;;;;;;;;;;;;;18.76;49.93;102172.63;7343066;19;19946;-57
2023/05/22 09:32:16;;;;;;;;;;;;;;;18.88;49.87;102171.34;7341992;19;19918;-58
2023/05/22 09:34:43;;;;;;;;;;;;;;;18.72;50.68;102104.84;7339337;19;19919;-58
2023/05/22 09:37:09;;;;;;;;;;;;;;;19.26;50.29;102164.75;7338837;19;19926;-57
2023/05/22 09:39:39;;;;;;;;;;;;;;;19.51;50.11;102161.19;7344525;19;19929;-58
2023/05/22 09:42:04;;;;;;;;;;;;;;;19.76;50.50;102162.03;7346548;19;19926;-57
2023/05/22 09:44:30;;;;;;;;;;;;;;;19.98;50.27;102161.22;7346180;19;19915;-59
2023/05/22 09:46:55;;;;;;;;;;;;;;;20.11;49.45;102165.09;7339053;19;20306;-58
2023/05/22 09:49:21;;;;;;;;;;;;;;;20.22;49.01;102160.22;7346864;19;19918;-58
2023/05/22 09:51:47;;;;;;;;;;;;;;;20.34;49.61;102154.47;7346945;19;20349;-58
2023/05/22 09:54:14;;;;;;;;;;;;;;;20.42;49.02;102152.34;7344935;19;19926;-57
2023/05/22 09:56:41;;;;;;;;;;;;;;;20.45;49.15;102146.91;7345953;19;19926;-58
2023/05/22 09:59:08;;;;;;;;;;;;;;;20.54;48.81;102150.16;7341931;19;19922;-58
2023/05/22 10:01:34;;;;;;;;;;;;;;;20.67;49.20;102149.56;7348493;19;19994;-59
2023/05/22 10:03:59;;;;;;;;;;;;;;;20.86;48.71;102149.66;7342894;19;20827;-58
2023/05/22 10:06:26;;;;;;;;;;;;;;;21.12;49.20;102152.97;7347101;19;19922;-58
2023/05/22 10:08:57;;;;;;;;;;;;;;;21.40;48.84;102150.00;7344640;19;19929;-58
2023/05/22 10:11:23;;;;;;;;;;;;;;;21.68;48.58;102158.44;7344007;19;20667;-58
2023/05/22 10:13:49;;;;;;;;;;;;;;;21.89;48.98;102159.22;7347902;19;19941;-59
2023/05/22 10:16:15;;;;;;;;;;;;;;;22.09;48.83;102162.75;7342573;19;20856;-59
2023/05/22 10:18:43;;;;;;;;;;;;;;;22.26;47.41;102157.53;7344402;19;19914;-59
2023/05/22 10:21:09;;;;;;;;;;;;;;;22.49;47.62;102172.34;7344576;19;19927;-59
2023/05/22 10:23:34;;;;;;;;;;;;;;;22.72;47.95;102176.56;7347283;19;19954;-59
2023/05/22 10:26:00;;;;;;;;;;;;;;;22.94;48.29;102173.69;7342741;19;20704;-58
2023/05/22 10:28:34;;;;;;;;;;;;;;;23.07;47.41;102179.25;7346056;19;19990;-58
2023/05/22 10:31:04;;;;;;;;;;;;;;;23.17;47.42;102175.16;7345994;19;19921;-58
2023/05/22 10:33:43;;;;;;;;;;;;;;;23.32;47.49;102174.38;7345289;19;19999;-58
2023/05/22 10:36:18;;;;;;;;;;;;;;;23.55;47.39;102168.66;7346760;19;19946;-58
2023/05/22 10:38:53;;;;;;;;;;;;;;;23.80;47.29;102165.53;7345416;19;20338;-58
2023/05/22 10:41:18;;;;;;;;;;;;;;;24.05;46.41;102167.72;7343167;19;20592;-57
2023/05/22 10:43:47;;;;;;;;;;;;;;;24.28;46.31;102177.09;7347848;19;19959;-58
2023/05/22 10:46:12;;;;;;;;;;;;;;;24.52;45.59;102174.84;7342753;19;20728;-57
2023/05/22 10:48:38;;;;;;;;;;;;;;;24.73;45.45;102166.50;7345195;19;19922;-59
2023/05/22 10:51:04;;;;;;;;;;;;;;;24.92;45.94;102167.16;7339540;19;19999;-58
2023/05/22 10:53:30;;;;;;;;;;;;;;;25.07;45.13;102171.59;7346025;19;19933;-59
2023/05/22 10:55:56;;;;;;;;;;;;;;;25.30;45.09;102167.53;7340609;19;19922;-59
2023/05/22 10:58:28;;;;;;;;;;;;;;;25.62;45.81;102167.34;7344263;19;20271;-58
2023/05/22 11:01:06;;;;;;;;;;;;;;;26.03;47.41;102169.22;7342824;19;20627;-58
2023/05/22 11:03:49;;;;;;;;;;;;;;;26.39;45.37;102160.59;7345106;19;19974;-59
2023/05/22 11:06:30;;;;;;;;;;;;;;;26.69;44.70;102155.03;7337867;19;20656;-59
2023/05/22 11:08:58;;;;;;;;;;;;;;;26.95;45.01;102177.38;7343528;19;19952;-59
2023/05/22 11:11:27;;;;;;;;;;;;;;;27.13;44.10;102165.44;7343344;19;19950;-59
2023/05/22 11:13:59;;;;;;;;;;;;;;;27.28;43.78;102158.16;7346405;19;19929;-58
2023/05/22 11:16:29;;;;;;;;;;;;;;;27.47;43.19;102155.00;7341607;19;20369;-58
2023/05/22 11:19:08;;;;;;;;;;;;;;;27.73;44.15;102144.25;7339939;19;19919;-59
2023/05/22 11:21:34;;;;;;;;;;;;;;;28.05;43.76;102153.50;7339543;19;20009;-59
2023/05/22 11:23:59;;;;;;;;;;;;;;;28.37;42.93;102152.97;7342686;19;19943;-58
2023/05/22 11:26:26;;;;;;;;;;;;;;;28.24;43.60;102099.28;7342661;19;19922;-58
2023/05/22 11:28:52;;;;;;;;;;;;;;;28.70;42.39;102149.56;7339297;19;21240;-58
2023/05/22 11:31:18;;;;;;;;;;;;;;;28.80;43.33;102152.41;7342283;19;19927;-59
2023/05/22 11:33:44;;;;;;;;;;;;;;;28.89;43.08;102151.69;7339636;19;21049;-59
2023/05/22 11:36:09;;;;;;;;;;;;;;;29.04;41.92;102152.34;7338786;19;19938;-59
2023/05/22 11:38:36;;;;;;;;;;;;;;;29.28;42.01;102138.81;7341767;19;20019;-58
2023/05/22 11:41:01;;;;;;;;;;;;;;;29.31;43.30;102101.78;7337790;19;19962;-59
2023/05/22 11:43:31;;;;;;;;;;;;;;;29.92;42.21;102149.81;7340291;19;19917;-59
2023/05/22 11:46:05;;;;;;;;;;;;;;;30.26;42.36;102149.75;7329059;19;19934;-59
2023/05/22 11:48:30;;;;;;;;;;;;;;;30.60;40.97;102145.94;7339871;19;20004;-58
2023/05/22 11:50:55;;;;;;;;;;;;;;;30.95;41.13;102155.56;7339990;19;19911;-58
2023/05/22 11:53:21;;;;;;;;;;;;;;;30.88;40.57;102112.09;7338719;19;19918;-58
2023/05/22 11:55:47;;;;;;;;;;;;;;;31.29;39.57;102152.69;7336753;19;20017;-58
2023/05/22 11:58:12;;;;;;;;;;;;;;;31.39;41.03;102140.06;7331835;19;19919;-59
2023/05/22 12:00:37;;;;;;;;;;;;;;;31.47;38.83;102142.94;7338102;19;19943;-58
2023/05/22 12:03:02;;;;;;;;;;;;;;;31.54;39.53;102152.22;7338364;19;19935;-59
2023/05/22 12:05:30;;;;;;;;;;;;;;;31.57;38.49;102151.91;7337298;19;19927;-59
2023/05/22 12:07:55;;;;;;;;;;;;;;;31.65;38.47;102146.72;7333380;19;19946;-57
2023/05/22 12:10:21;;;;;;;;;;;;;;;31.83;38.79;102146.06;7335669;19;19914;-59
2023/05/22 12:12:46;;;;;;;;;;;;;;;32.08;39.86;102145.53;7342177;19;19975;-58
2023/05/22 12:15:12;;;;;;;;;;;;;;;32.30;38.89;102160.66;7339566;19;20362;-58
2023/05/22 12:17:38;;;;;;;;;;;;;;;32.45;38.88;102156.56;7342746;19;19930;-58
2023/05/22 12:20:04;;;;;;;;;;;;;;;32.47;37.59;102161.81;7339933;19;19960;-58
2023/05/22 12:22:29;;;;;;;;;;;;;;;32.46;37.65;102150.16;7343266;19;19926;-58
2023/05/22 12:24:54;;;;;;;;;;;;;;;32.47;37.35;102159.13;7342001;19;20426;-58
2023/05/22 12:27:20;;;;;;;;;;;;;;;32.50;38.18;102148.88;7339195;19;20364;-58
2023/05/22 12:29:45;;;;;;;;;;;;;;;32.56;38.17;102149.31;7339090;19;19930;-58
2023/05/22 12:32:11;;;;;;;;;;;;;;;32.66;37.57;102144.75;7334700;19;20316;-58